Saint Petersburg, Florida
Current Conditions -  °F | °C
As of 2:53 AM on Monday 24 Nov 2014 (Local Time) from KSPG Reporting Station
Overcast Overcast  
Wind Chill: 23°   Ceiling: 600
Heat Index: 23°   Visibility: 8mi
Dew Point: 22°   Wind: 9mph
Humidity: 93%   Direction: 210°SSW
Pressure: 29.9"   Gusts: NA
Location:  27.77°N, 82.63°W
Report Text: KSPG 240753Z AUTO 21008KT 8SM OVC006 23/22 A2990 RMK AO2 SLP124 T02280217
Loading
Personal Weather Stations






























Interactive Weather Map New forecast layout! Learn more

10-Day Weather Forecast

Advertisements
Track Severe Weather on mobile